Time,TemperatureF,DewpointF,PressureIn,WindDirection,WindDirectionDegrees,WindSpeedMPH,WindSpeedGustMPH,Humidity,HourlyPrecipIn,Conditions,Clouds,dailyrainin,SoftwareType,DateUTC
2013-05-10 00:01:00,55.8,35.3,30.07,SSE,158,1.8,1.8,46,0.00,,---,0.00,VWS V14.01,2013-05-10 06:01:00,
2013-05-10 00:06:00,55.8,36.4,30.07,ESE,112,4.7,4.7,48,0.00,,---,0.00,VWS V14.01,2013-05-10 06:06:00,
2013-05-10 00:11:00,55.4,36.1,30.07,SE,135,4.9,4.9,48,0.00,,---,0.00,VWS V14.01,2013-05-10 06:11:00,
2013-05-10 00:16:00,55.6,35.7,30.07,ESE,112,4.0,4.0,47,0.00,,---,0.00,VWS V14.01,2013-05-10 06:16:00,
2013-05-10 00:21:00,55.8,35.9,30.07,SE,135,2.5,2.5,47,0.00,,---,0.00,VWS V14.01,2013-05-10 06:21:00,
2013-05-10 00:26:00,55.6,36.2,30.07,ESE,112,2.9,2.9,48,0.00,,---,0.00,VWS V14.01,2013-05-10 06:26:00,
2013-05-10 00:31:00,55.4,36.1,30.07,ESE,112,1.1,1.1,48,0.00,,---,0.00,VWS V14.01,2013-05-10 06:31:00,
2013-05-10 00:36:00,55.4,36.1,30.07,SE,135,1.6,1.6,48,0.00,,---,0.00,VWS V14.01,2013-05-10 06:36:00,
2013-05-10 00:41:00,55.4,36.1,30.06,ESE,112,1.3,1.3,48,0.00,,---,0.00,VWS V14.01,2013-05-10 06:41:00,
2013-05-10 00:46:00,55.4,36.1,30.06,East,90,2.2,2.2,48,0.00,,---,0.00,VWS V14.01,2013-05-10 06:46:00,
2013-05-10 00:51:00,55.4,35.5,30.06,ESE,112,1.8,1.8,47,0.00,,---,0.00,VWS V14.01,2013-05-10 06:51:00,
2013-05-10 00:55:00,55.8,35.3,30.06,NNE,22,3.1,3.1,46,0.00,,---,0.00,VWS V14.01,2013-05-10 06:55:00,
2013-05-10 01:00:00,56.0,34.4,30.05,ENE,68,3.4,3.4,44,0.00,,---,0.00,VWS V14.01,2013-05-10 07:00:00,
2013-05-10 01:05:00,56.3,34.1,30.05,NNE,22,3.4,3.4,43,0.00,,---,0.00,VWS V14.01,2013-05-10 07:05:00,
2013-05-10 01:10:00,56.5,34.3,30.05,North,0,0.9,0.9,43,0.00,,---,0.00,VWS V14.01,2013-05-10 07:10:00,
2013-05-10 01:15:00,56.5,33.7,30.05,NE,45,1.6,1.6,42,0.00,,---,0.00,VWS V14.01,2013-05-10 07:15:00,
2013-05-10 01:20:00,56.5,33.1,30.05,NNE,22,0.9,0.9,41,0.00,,---,0.00,VWS V14.01,2013-05-10 07:20:00,
2013-05-10 01:25:00,56.7,32.7,30.05,NNE,22,4.7,4.7,40,0.00,,---,0.00,VWS V14.01,2013-05-10 07:25:00,
2013-05-10 01:30:00,56.7,32.7,30.05,NNE,22,2.9,2.9,40,0.00,,---,0.00,VWS V14.01,2013-05-10 07:30:00,
2013-05-10 01:35:00,56.9,32.2,30.05,ENE,68,3.6,3.6,39,0.00,,---,0.00,VWS V14.01,2013-05-10 07:35:00,
2013-05-10 01:40:00,56.9,32.2,30.05,NNE,22,2.0,2.0,39,0.00,,---,0.00,VWS V14.01,2013-05-10 07:40:00,
2013-05-10 01:45:00,56.7,32.0,30.05,NE,45,0.4,0.4,39,0.00,,---,0.00,VWS V14.01,2013-05-10 07:45:00,
2013-05-10 01:50:00,56.9,32.2,30.05,NE,45,0.2,0.2,39,0.00,,---,0.00,VWS V14.01,2013-05-10 07:50:00,
2013-05-10 01:55:00,56.7,32.0,30.04,East,90,0.4,0.4,39,0.00,,---,0.00,VWS V14.01,2013-05-10 07:55:00,
2013-05-10 02:00:00,56.5,31.9,30.05,ESE,112,0.2,0.2,39,0.00,,---,0.00,VWS V14.01,2013-05-10 08:00:00,
2013-05-10 02:05:00,56.3,34.1,30.04,SE,135,1.3,1.3,43,0.00,,---,0.00,VWS V14.01,2013-05-10 08:05:00,
2013-05-10 02:10:00,56.2,34.0,30.04,SE,135,0.0,0.0,43,0.00,,---,0.00,VWS V14.01,2013-05-10 08:10:00,
2013-05-10 02:15:00,56.2,34.0,30.04,SE,135,1.1,1.1,43,0.00,,---,0.00,VWS V14.01,2013-05-10 08:15:00,
2013-05-10 02:20:00,56.2,34.0,30.04,ESE,112,0.9,0.9,43,0.00,,---,0.00,VWS V14.01,2013-05-10 08:20:00,
2013-05-10 02:25:00,56.2,34.0,30.04,ESE,112,4.0,4.0,43,0.00,,---,0.00,VWS V14.01,2013-05-10 08:25:00,
2013-05-10 02:30:00,56.2,34.0,30.04,ESE,112,0.7,0.7,43,0.00,,---,0.00,VWS V14.01,2013-05-10 08:30:00,
2013-05-10 02:35:00,56.3,34.1,30.04,ESE,112,2.5,2.5,43,0.00,,---,0.00,VWS V14.01,2013-05-10 08:35:00,
2013-05-10 02:40:00,56.3,34.1,30.04,ESE,112,3.1,3.1,43,0.00,,---,0.00,VWS V14.01,2013-05-10 08:40:00,
2013-05-10 02:45:00,56.3,34.1,30.05,SE,135,0.4,0.4,43,0.00,,---,0.00,VWS V14.01,2013-05-10 08:45:00,
2013-05-10 02:50:00,56.2,34.6,30.05,SSE,158,0.7,0.7,44,0.00,,---,0.00,VWS V14.01,2013-05-10 08:50:00,
2013-05-10 02:55:00,56.0,34.4,30.05,SE,135,4.0,4.0,44,0.00,,---,0.00,VWS V14.01,2013-05-10 08:55:00,
2013-05-10 03:00:00,56.2,34.0,30.05,ESE,112,2.2,2.2,43,0.00,,---,0.00,VWS V14.01,2013-05-10 09:00:00,
2013-05-10 03:05:00,56.3,34.1,30.05,SE,135,0.9,0.9,43,0.00,,---,0.00,VWS V14.01,2013-05-10 09:05:00,
2013-05-10 03:10:00,56.3,34.7,30.05,ESE,112,1.3,1.3,44,0.00,,---,0.00,VWS V14.01,2013-05-10 09:10:00,
2013-05-10 03:15:00,55.8,35.3,30.05,ESE,112,4.0,4.0,46,0.00,,---,0.00,VWS V14.01,2013-05-10 09:15:00,
2013-05-10 03:20:00,55.8,34.8,30.05,SE,135,1.6,1.6,45,0.00,,---,0.00,VWS V14.01,2013-05-10 09:20:00,
2013-05-10 03:25:00,55.8,34.8,30.05,SE,135,0.7,0.7,45,0.00,,---,0.00,VWS V14.01,2013-05-10 09:25:00,
2013-05-10 03:30:00,55.8,34.8,30.05,SE,135,1.6,1.6,45,0.00,,---,0.00,VWS V14.01,2013-05-10 09:30:00,
2013-05-10 03:35:00,55.8,34.8,30.05,SE,135,0.4,0.4,45,0.00,,---,0.00,VWS V14.01,2013-05-10 09:35:00,
2013-05-10 03:40:00,55.4,34.4,30.05,SE,135,0.0,0.0,45,0.00,,---,0.00,VWS V14.01,2013-05-10 09:40:00,
2013-05-10 03:45:00,55.4,34.4,30.05,SE,135,2.9,2.9,45,0.00,,---,0.00,VWS V14.01,2013-05-10 09:45:00,
2013-05-10 03:50:00,55.6,34.6,30.05,SE,135,0.4,0.4,45,0.00,,---,0.00,VWS V14.01,2013-05-10 09:50:00,
2013-05-10 03:55:00,55.4,34.4,30.05,ESE,112,0.4,0.4,45,0.00,,---,0.00,VWS V14.01,2013-05-10 09:55:00,
2013-05-10 04:00:00,54.5,34.2,30.05,NW,315,4.0,4.0,46,0.00,,---,0.00,VWS V14.01,2013-05-10 10:00:00,
2013-05-10 04:05:00,54.0,33.7,30.05,West,270,2.9,2.9,46,0.00,,---,0.00,VWS V14.01,2013-05-10 10:05:00,
2013-05-10 04:10:00,53.6,33.3,30.05,NNW,338,0.4,0.4,46,0.00,,---,0.00,VWS V14.01,2013-05-10 10:10:00,
2013-05-10 04:15:00,53.3,33.6,30.05,North,0,0.4,0.4,47,0.00,,---,0.00,VWS V14.01,2013-05-10 10:15:00,
2013-05-10 04:20:00,52.9,33.8,30.05,North,0,1.3,1.3,48,0.00,,---,0.00,VWS V14.01,2013-05-10 10:20:00,
2013-05-10 04:25:00,52.6,34.0,30.05,North,0,2.5,2.5,49,0.00,,---,0.00,VWS V14.01,2013-05-10 10:25:00,
2013-05-10 04:30:00,52.2,34.1,30.04,ENE,68,2.2,2.2,50,0.00,,---,0.00,VWS V14.01,2013-05-10 10:30:00,
2013-05-10 04:35:00,52.0,33.5,30.04,NNE,22,0.0,0.0,49,0.00,,---,0.00,VWS V14.01,2013-05-10 10:35:00,
2013-05-10 04:40:00,51.8,33.8,30.05,North,0,1.3,1.3,50,0.00,,---,0.00,VWS V14.01,2013-05-10 10:40:00,
2013-05-10 04:45:00,51.8,32.8,30.04,NNE,22,0.0,0.0,48,0.00,,---,0.00,VWS V14.01,2013-05-10 10:45:00,
2013-05-10 04:50:00,51.5,32.5,30.05,ESE,112,0.0,0.0,48,0.00,,---,0.00,VWS V14.01,2013-05-10 10:50:00,
2013-05-10 04:55:00,51.8,33.3,30.05,South,180,0.4,0.4,49,0.00,,---,0.00,VWS V14.01,2013-05-10 10:55:00,
2013-05-10 05:00:00,52.6,33.5,30.05,SE,135,0.2,0.2,48,0.00,,---,0.00,VWS V14.01,2013-05-10 11:00:00,
2013-05-10 05:05:00,52.9,33.8,30.05,SSE,158,0.9,0.9,48,0.00,,---,0.00,VWS V14.01,2013-05-10 11:05:00,
2013-05-10 05:10:00,53.3,34.1,30.05,SE,135,3.1,3.1,48,0.00,,---,0.00,VWS V14.01,2013-05-10 11:10:00,
2013-05-10 05:15:00,53.6,33.9,30.05,ESE,112,2.5,2.5,47,0.00,,---,0.00,VWS V14.01,2013-05-10 11:15:00,
2013-05-10 05:20:00,53.8,34.1,30.05,ESE,112,7.8,7.8,47,0.00,,---,0.00,VWS V14.01,2013-05-10 11:20:00,
2013-05-10 05:25:00,53.8,34.1,30.05,ESE,112,4.5,4.5,47,0.00,,---,0.00,VWS V14.01,2013-05-10 11:25:00,
2013-05-10 05:30:00,53.8,34.1,30.05,ESE,112,4.7,4.7,47,0.00,,---,0.00,VWS V14.01,2013-05-10 11:30:00,
2013-05-10 05:35:00,53.6,33.9,30.05,SSE,158,2.2,2.2,47,0.00,,---,0.00,VWS V14.01,2013-05-10 11:35:00,
2013-05-10 05:40:00,53.6,33.9,30.05,ESE,112,2.9,2.9,47,0.00,,---,0.00,VWS V14.01,2013-05-10 11:40:00,
2013-05-10 05:45:00,53.6,33.9,30.06,ESE,112,1.6,1.6,47,0.00,,---,0.00,VWS V14.01,2013-05-10 11:45:00,
2013-05-10 05:50:00,53.8,34.1,30.06,SE,135,2.0,2.0,47,0.00,,---,0.00,VWS V14.01,2013-05-10 11:50:00,
2013-05-10 05:55:00,53.6,33.9,30.06,SE,135,3.4,3.4,47,0.00,,---,0.00,VWS V14.01,2013-05-10 11:55:00,
2013-05-10 06:00:00,53.6,33.9,30.06,East,90,0.9,0.9,47,0.00,,---,0.00,VWS V14.01,2013-05-10 12:00:00,
2013-05-10 06:05:00,53.6,34.4,30.06,SSE,158,2.7,2.7,48,0.00,,---,0.00,VWS V14.01,2013-05-10 12:05:00,
2013-05-10 06:10:00,53.6,33.9,30.07,ESE,112,3.1,3.1,47,0.00,,---,0.00,VWS V14.01,2013-05-10 12:10:00,
2013-05-10 06:15:00,53.8,34.1,30.07,ENE,68,2.2,2.2,47,0.00,,---,0.00,VWS V14.01,2013-05-10 12:15:00,
2013-05-10 06:20:00,53.8,34.1,30.06,ESE,112,1.8,1.8,47,0.00,,---,0.00,VWS V14.01,2013-05-10 12:20:00,
2013-05-10 06:25:00,53.8,34.1,30.07,SE,135,2.7,2.7,47,0.00,,---,0.00,VWS V14.01,2013-05-10 12:25:00,
2013-05-10 06:30:00,53.8,34.1,30.07,SE,135,1.8,1.8,47,0.00,,---,0.00,VWS V14.01,2013-05-10 12:30:00,
2013-05-10 06:35:00,53.6,34.4,30.07,SE,135,6.0,6.0,48,0.00,,---,0.00,VWS V14.01,2013-05-10 12:35:00,
2013-05-10 06:40:00,53.6,34.4,30.07,ESE,112,1.3,1.3,48,0.00,,---,0.00,VWS V14.01,2013-05-10 12:40:00,
2013-05-10 06:45:00,54.2,35.0,30.07,ESE,112,3.4,3.4,48,0.00,,---,0.00,VWS V14.01,2013-05-10 12:45:00,
2013-05-10 06:50:00,54.4,35.1,30.07,ESE,112,2.5,2.5,48,0.00,,---,0.00,VWS V14.01,2013-05-10 12:50:00,
2013-05-10 06:55:00,54.5,35.2,30.08,ESE,112,5.1,5.1,48,0.00,,---,0.00,VWS V14.01,2013-05-10 12:55:00,
2013-05-10 07:00:00,54.9,35.6,30.08,ESE,112,1.8,1.8,48,0.00,,---,0.00,VWS V14.01,2013-05-10 13:00:00,
2013-05-10 07:05:00,55.1,35.2,30.08,ESE,112,7.6,7.6,47,0.00,,---,0.00,VWS V14.01,2013-05-10 13:05:00,
2013-05-10 07:10:00,55.4,35.5,30.09,ENE,68,3.4,3.4,47,0.00,,---,0.00,VWS V14.01,2013-05-10 13:10:00,
2013-05-10 07:15:00,56.0,35.5,30.09,East,90,3.4,3.4,46,0.00,,---,0.00,VWS V14.01,2013-05-10 13:15:00,
2013-05-10 07:20:00,56.0,35.5,30.09,SE,135,3.4,7.2,46,0.00,,---,0.00,VWS V14.01,2013-05-10 13:20:00,
2013-05-10 07:25:00,56.3,35.2,30.09,NE,45,3.6,3.6,45,0.00,,---,0.00,VWS V14.01,2013-05-10 13:25:00,
2013-05-10 07:30:00,56.5,35.4,30.09,ENE,68,3.1,3.1,45,0.00,,---,0.00,VWS V14.01,2013-05-10 13:30:00,
2013-05-10 07:35:00,57.6,35.9,30.10,ESE,112,1.1,1.1,44,0.00,,---,0.00,VWS V14.01,2013-05-10 13:35:00,
2013-05-10 07:40:00,57.6,35.3,30.09,NNW,338,0.4,0.4,43,0.00,,---,0.00,VWS V14.01,2013-05-10 13:40:00,
2013-05-10 07:45:00,59.0,36.0,30.09,North,0,0.2,0.2,42,0.00,,---,0.00,VWS V14.01,2013-05-10 13:45:00,
2013-05-10 07:50:00,60.3,35.9,30.10,NNW,338,1.1,1.1,40,0.00,,---,0.00,VWS V14.01,2013-05-10 13:50:00,
2013-05-10 07:55:00,59.9,35.5,30.10,NNE,22,2.5,2.5,40,0.00,,---,0.00,VWS V14.01,2013-05-10 13:55:00,
2013-05-10 08:00:00,58.7,35.1,30.10,NNW,338,1.1,1.1,41,0.00,,---,0.00,VWS V14.01,2013-05-10 14:00:00,
2013-05-10 08:05:00,58.7,35.7,30.10,NW,315,2.0,2.0,42,0.00,,---,0.00,VWS V14.01,2013-05-10 14:05:00,
2013-05-10 08:10:00,59.8,35.5,30.10,WSW,248,2.2,2.2,40,0.00,,---,0.00,VWS V14.01,2013-05-10 14:10:00,
2013-05-10 08:15:00,59.8,35.5,30.10,WNW,292,1.3,1.3,40,0.00,,---,0.00,VWS V14.01,2013-05-10 14:15:00,
2013-05-10 08:20:00,60.5,35.4,30.10,North,0,0.9,0.9,39,0.00,,---,0.00,VWS V14.01,2013-05-10 14:20:00,
2013-05-10 08:25:00,60.7,35.6,30.10,NNW,338,0.4,0.4,39,0.00,,---,0.00,VWS V14.01,2013-05-10 14:25:00,
2013-05-10 08:30:00,60.8,35.7,30.10,NNW,338,1.3,1.3,39,0.00,,---,0.00,VWS V14.01,2013-05-10 14:30:00,
2013-05-10 08:35:00,61.2,35.4,30.10,WNW,292,1.3,1.3,38,0.00,,---,0.00,VWS V14.01,2013-05-10 14:35:00,
2013-05-10 08:40:00,62.3,35.7,30.10,NNW,338,2.0,2.0,37,0.00,,---,0.00,VWS V14.01,2013-05-10 14:40:00,
2013-05-10 08:45:00,61.6,35.1,30.10,WNW,292,1.3,1.3,37,0.00,,---,0.00,VWS V14.01,2013-05-10 14:45:00,
2013-05-10 08:50:00,62.5,35.9,30.10,WSW,248,0.7,0.7,37,0.00,,---,0.00,VWS V14.01,2013-05-10 14:50:00,
2013-05-10 08:55:00,63.0,35.7,30.10,NW,315,3.1,3.1,36,0.00,,---,0.00,VWS V14.01,2013-05-10 14:55:00,
2013-05-10 09:00:00,63.7,36.3,30.09,WSW,248,0.0,0.0,36,0.00,,---,0.00,VWS V14.01,2013-05-10 15:00:00,
2013-05-10 09:05:00,64.4,34.7,30.09,NW,315,2.2,2.2,33,0.00,,---,0.00,VWS V14.01,2013-05-10 15:05:00,
2013-05-10 09:10:00,62.5,35.2,30.10,NNW,338,1.8,2.9,36,0.00,,---,0.00,VWS V14.01,2013-05-10 15:10:00,
2013-05-10 09:15:00,62.8,35.5,30.09,WNW,292,0.9,0.9,36,0.00,,---,0.00,VWS V14.01,2013-05-10 15:15:00,
2013-05-10 09:20:00,63.0,34.2,30.09,NNW,338,1.8,1.8,34,0.00,,---,0.00,VWS V14.01,2013-05-10 15:20:00,
2013-05-10 09:25:00,62.1,34.8,30.09,NNW,338,0.9,0.9,36,0.00,,---,0.00,VWS V14.01,2013-05-10 15:25:00,
2013-05-10 09:30:00,62.6,34.6,30.10,West,270,1.3,1.3,35,0.00,,---,0.00,VWS V14.01,2013-05-10 15:30:00,
2013-05-10 09:35:00,63.4,34.6,30.10,West,270,0.7,0.7,34,0.00,,---,0.00,VWS V14.01,2013-05-10 15:35:00,
2013-05-10 09:40:00,62.8,34.0,30.10,SW,225,0.4,0.4,34,0.00,,---,0.00,VWS V14.01,2013-05-10 15:40:00,
2013-05-10 09:45:00,63.2,34.4,30.09,South,180,3.4,3.4,34,0.00,,---,0.00,VWS V14.01,2013-05-10 15:45:00,
2013-05-10 09:50:00,63.4,34.6,30.10,WNW,292,1.3,1.3,34,0.00,,---,0.00,VWS V14.01,2013-05-10 15:50:00,
2013-05-10 09:55:00,64.1,34.4,30.09,NNW,338,1.6,1.6,33,0.00,,---,0.00,VWS V14.01,2013-05-10 15:55:00,
2013-05-10 10:00:00,63.9,34.3,30.10,WNW,292,2.5,2.5,33,0.00,,---,0.00,VWS V14.01,2013-05-10 16:00:00,
2013-05-10 10:05:00,63.5,33.9,30.10,NNE,22,1.1,1.1,33,0.00,,---,0.00,VWS V14.01,2013-05-10 16:05:00,
2013-05-10 10:10:00,63.9,34.3,30.10,NE,45,1.1,1.1,33,0.00,,---,0.00,VWS V14.01,2013-05-10 16:10:00,
2013-05-10 10:15:00,64.4,34.7,30.10,SSW,202,2.7,2.7,33,0.00,,---,0.00,VWS V14.01,2013-05-10 16:15:00,
2013-05-10 10:20:00,63.2,33.6,30.10,West,270,2.5,2.5,33,0.00,,---,0.00,VWS V14.01,2013-05-10 16:20:00,
2013-05-10 10:25:00,63.7,34.1,30.10,NNW,338,1.6,1.6,33,0.00,,---,0.00,VWS V14.01,2013-05-10 16:25:00,
2013-05-10 10:30:00,63.0,33.5,30.10,NE,45,0.4,0.4,33,0.00,,---,0.00,VWS V14.01,2013-05-10 16:30:00,
2013-05-10 10:35:00,62.8,34.0,30.10,South,180,0.4,0.4,34,0.00,,---,0.00,VWS V14.01,2013-05-10 16:35:00,
2013-05-10 10:40:00,61.7,34.5,30.10,SW,225,1.3,1.3,36,0.00,,---,0.00,VWS V14.01,2013-05-10 16:40:00,
2013-05-10 10:45:00,61.7,35.2,30.09,ESE,112,6.3,6.3,37,0.00,,---,0.00,VWS V14.01,2013-05-10 16:45:00,
2013-05-10 10:50:00,61.6,35.1,30.09,SSE,158,1.8,1.8,37,0.00,,---,0.00,VWS V14.01,2013-05-10 16:50:00,
2013-05-10 10:55:00,61.6,35.1,30.09,East,90,1.1,1.1,37,0.00,,---,0.00,VWS V14.01,2013-05-10 16:55:00,
2013-05-10 11:00:00,61.2,35.4,30.09,ESE,112,4.0,4.0,38,0.00,,---,0.00,VWS V14.01,2013-05-10 17:00:00,
2013-05-10 11:05:00,61.2,35.4,30.10,NE,45,7.6,7.6,38,0.00,,---,0.00,VWS V14.01,2013-05-10 17:05:00,
2013-05-10 11:10:00,60.8,35.7,30.09,NNW,338,4.9,4.9,39,0.00,,---,0.00,VWS V14.01,2013-05-10 17:10:00,
2013-05-10 11:15:00,61.0,35.9,30.10,East,90,1.1,1.1,39,0.00,,---,0.00,VWS V14.01,2013-05-10 17:15:00,
2013-05-10 11:20:00,61.0,35.9,30.10,ESE,112,4.3,4.3,39,0.00,,---,0.00,VWS V14.01,2013-05-10 17:20:00,
2013-05-10 11:25:00,60.7,36.3,30.10,East,90,1.3,1.3,40,0.00,,---,0.00,VWS V14.01,2013-05-10 17:25:00,
2013-05-10 11:30:00,60.8,36.3,30.10,East,90,3.8,3.8,40,0.00,,---,0.00,VWS V14.01,2013-05-10 17:30:00,
2013-05-10 11:35:00,59.9,36.2,30.10,ESE,112,4.0,4.0,41,0.00,,---,0.00,VWS V14.01,2013-05-10 17:35:00,
2013-05-10 11:40:00,59.4,35.7,30.10,SE,135,5.1,5.1,41,0.00,,---,0.00,VWS V14.01,2013-05-10 17:40:00,
2013-05-10 11:45:00,59.2,36.1,30.10,ESE,112,3.6,3.6,42,0.00,,---,0.00,VWS V14.01,2013-05-10 17:45:00,
2013-05-10 11:50:00,59.0,36.0,30.10,SE,135,7.4,7.4,42,0.00,,---,0.00,VWS V14.01,2013-05-10 17:50:00,
2013-05-10 11:55:00,59.8,36.1,30.10,ENE,68,6.5,6.5,41,0.00,,---,0.00,VWS V14.01,2013-05-10 17:55:00,
2013-05-10 11:59:00,59.4,35.7,30.10,ESE,112,4.7,4.7,41,0.00,,---,0.00,VWS V14.01,2013-05-10 17:59:00,
2013-05-10 12:04:00,60.5,36.7,30.10,East,90,3.8,3.8,41,0.00,,---,0.00,VWS V14.01,2013-05-10 18:04:00,
2013-05-10 12:09:00,60.7,36.9,30.10,ESE,112,4.7,4.7,41,0.00,,---,0.00,VWS V14.01,2013-05-10 18:09:00,
2013-05-10 12:14:00,60.7,35.0,30.10,SE,135,2.5,2.5,38,0.00,,---,0.00,VWS V14.01,2013-05-10 18:14:00,
2013-05-10 12:19:00,61.0,34.6,30.09,ENE,68,5.6,5.6,37,0.00,,---,0.00,VWS V14.01,2013-05-10 18:19:00,
2013-05-10 12:24:00,61.7,34.5,30.09,ENE,68,4.9,4.9,36,0.00,,---,0.00,VWS V14.01,2013-05-10 18:24:00,
2013-05-10 12:29:00,61.4,34.9,30.09,ENE,68,4.7,4.7,37,0.00,,---,0.00,VWS V14.01,2013-05-10 18:29:00,
2013-05-10 12:34:00,60.8,35.7,30.09,ESE,112,1.8,1.8,39,0.00,,---,0.00,VWS V14.01,2013-05-10 18:34:00,
2013-05-10 12:39:00,60.5,34.1,30.09,SE,135,5.4,5.4,37,0.00,,---,0.00,VWS V14.01,2013-05-10 18:39:00,
2013-05-10 12:44:00,60.7,35.6,30.09,SE,135,3.4,3.4,39,0.00,,---,0.00,VWS V14.01,2013-05-10 18:44:00,
2013-05-10 12:49:00,61.7,35.2,30.08,ESE,112,3.8,3.8,37,0.00,,---,0.00,VWS V14.01,2013-05-10 18:49:00,
2013-05-10 12:54:00,62.8,35.5,30.08,East,90,5.4,5.4,36,0.00,,---,0.00,VWS V14.01,2013-05-10 18:54:00,
2013-05-10 12:59:00,62.8,34.8,30.08,SSE,158,4.9,4.9,35,0.00,,---,0.00,VWS V14.01,2013-05-10 18:59:00,
2013-05-10 13:04:00,62.6,35.3,30.08,ESE,112,3.8,3.8,36,0.00,,---,0.00,VWS V14.01,2013-05-10 19:04:00,
2013-05-10 13:09:00,62.6,35.3,30.08,ESE,112,2.9,2.9,36,0.00,,---,0.00,VWS V14.01,2013-05-10 19:09:00,
2013-05-10 13:14:00,63.4,34.6,30.08,ESE,112,3.1,3.1,34,0.00,,---,0.00,VWS V14.01,2013-05-10 19:14:00,
2013-05-10 13:19:00,63.2,34.4,30.08,SSW,202,1.1,1.1,34,0.00,,---,0.00,VWS V14.01,2013-05-10 19:19:00,
2013-05-10 13:24:00,63.7,34.1,30.07,North,0,1.3,1.3,33,0.00,,---,0.00,VWS V14.01,2013-05-10 19:24:00,
2013-05-10 13:29:00,63.9,34.3,30.07,West,270,0.2,0.2,33,0.00,,---,0.00,VWS V14.01,2013-05-10 19:29:00,
2013-05-10 13:34:00,63.7,33.3,30.07,NNE,22,2.5,2.5,32,0.00,,---,0.00,VWS V14.01,2013-05-10 19:34:00,
2013-05-10 13:39:00,62.8,34.8,30.07,ENE,68,2.5,2.5,35,0.00,,---,0.00,VWS V14.01,2013-05-10 19:39:00,
2013-05-10 13:44:00,62.6,33.9,30.06,ENE,68,3.6,3.6,34,0.00,,---,0.00,VWS V14.01,2013-05-10 19:44:00,
2013-05-10 13:49:00,63.0,33.5,30.06,West,270,2.9,2.9,33,0.00,,---,0.00,VWS V14.01,2013-05-10 19:49:00,
2013-05-10 13:54:00,63.5,33.1,30.06,WNW,292,2.5,2.5,32,0.00,,---,0.00,VWS V14.01,2013-05-10 19:54:00,
2013-05-10 13:59:00,63.5,33.1,30.06,West,270,3.8,3.8,32,0.00,,---,0.00,VWS V14.01,2013-05-10 19:59:00,
2013-05-10 14:04:00,63.4,33.0,30.06,NW,315,3.8,3.8,32,0.00,,---,0.00,VWS V14.01,2013-05-10 20:04:00,
2013-05-10 14:09:00,63.2,36.5,30.06,WNW,292,2.7,2.7,37,0.00,,---,0.00,VWS V14.01,2013-05-10 20:09:00,
2013-05-10 14:14:00,62.6,35.3,30.06,WNW,292,2.7,2.7,36,0.00,,---,0.00,VWS V14.01,2013-05-10 20:14:00,
2013-05-10 14:19:00,63.5,34.7,30.06,West,270,3.4,3.4,34,0.00,,---,0.00,VWS V14.01,2013-05-10 20:19:00,
2013-05-10 14:24:00,64.4,33.9,30.06,NW,315,1.3,1.3,32,0.00,,---,0.00,VWS V14.01,2013-05-10 20:24:00,
2013-05-10 14:29:00,64.3,33.8,30.06,NNE,22,3.4,3.4,32,0.00,,---,0.00,VWS V14.01,2013-05-10 20:29:00,
2013-05-10 14:34:00,63.2,36.5,30.06,NNE,22,8.3,8.3,37,0.00,,---,0.00,VWS V14.01,2013-05-10 20:34:00,
2013-05-10 14:39:00,59.4,38.6,30.07,NNE,22,11.4,11.4,46,0.00,,---,0.00,VWS V14.01,2013-05-10 20:39:00,
2013-05-10 14:44:00,56.9,40.4,30.07,NE,45,9.2,9.2,54,0.03,,---,0.03,VWS V14.01,2013-05-10 20:44:00,
2013-05-10 14:49:00,55.3,38.5,30.07,South,180,2.0,2.0,53,0.04,,---,0.04,VWS V14.01,2013-05-10 20:49:00,
2013-05-10 14:54:00,55.1,38.3,30.07,SE,135,7.4,7.4,53,0.04,,---,0.04,VWS V14.01,2013-05-10 20:54:00,
2013-05-10 14:59:00,54.9,40.9,30.07,ESE,112,1.8,1.8,59,0.04,,---,0.04,VWS V14.01,2013-05-10 20:59:00,
2013-05-10 15:04:00,55.1,40.2,30.08,ESE,112,1.8,1.8,57,0.04,,---,0.04,VWS V14.01,2013-05-10 21:04:00,
2013-05-10 15:09:00,55.1,38.3,30.08,SE,135,1.8,1.8,53,0.04,,---,0.04,VWS V14.01,2013-05-10 21:09:00,
2013-05-10 15:14:00,55.1,40.2,30.08,ESE,112,2.2,2.2,57,0.04,,---,0.04,VWS V14.01,2013-05-10 21:14:00,
2013-05-10 15:19:00,55.3,40.3,30.08,ESE,112,0.2,0.2,57,0.04,,---,0.04,VWS V14.01,2013-05-10 21:19:00,
2013-05-10 15:24:00,55.6,40.2,30.07,ESE,112,0.0,0.0,56,0.04,,---,0.04,VWS V14.01,2013-05-10 21:24:00,
2013-05-10 15:29:00,56.0,41.0,30.07,SSE,158,1.3,1.3,57,0.04,,---,0.04,VWS V14.01,2013-05-10 21:29:00,
2013-05-10 15:34:00,56.9,39.0,30.07,SE,135,0.7,0.7,51,0.04,,---,0.04,VWS V14.01,2013-05-10 21:34:00,
2013-05-10 15:39:00,57.4,38.4,30.07,SE,135,1.1,1.1,49,0.04,,---,0.04,VWS V14.01,2013-05-10 21:39:00,
2013-05-10 15:44:00,57.8,38.3,30.07,SE,135,1.1,1.6,48,0.02,,---,0.04,VWS V14.01,2013-05-10 21:44:00,
2013-05-10 15:49:00,58.0,38.4,30.07,SSE,158,1.6,1.6,48,0.00,,---,0.04,VWS V14.01,2013-05-10 21:49:00,
2013-05-10 15:54:00,58.3,38.7,30.07,SE,135,3.4,3.4,48,0.00,,---,0.04,VWS V14.01,2013-05-10 21:54:00,
2013-05-10 15:58:00,58.3,38.7,30.07,SE,135,2.9,2.9,48,0.00,,---,0.04,VWS V14.01,2013-05-10 21:58:00,
2013-05-10 16:03:00,58.5,38.4,30.07,SE,135,0.7,0.7,47,0.00,,---,0.04,VWS V14.01,2013-05-10 22:03:00,
2013-05-10 16:08:00,58.7,39.6,30.07,SE,135,0.4,0.4,49,0.00,,---,0.04,VWS V14.01,2013-05-10 22:08:00,
2013-05-10 16:13:00,59.2,39.0,30.07,SSE,158,2.5,2.5,47,0.00,,---,0.04,VWS V14.01,2013-05-10 22:13:00,
2013-05-10 16:18:00,59.4,38.6,30.07,SE,135,0.4,0.4,46,0.00,,---,0.04,VWS V14.01,2013-05-10 22:18:00,
2013-05-10 16:23:00,59.8,38.4,30.07,SE,135,2.5,2.5,45,0.00,,---,0.04,VWS V14.01,2013-05-10 22:23:00,
2013-05-10 16:28:00,60.1,39.3,30.07,SSE,158,0.2,0.2,46,0.00,,---,0.04,VWS V14.01,2013-05-10 22:28:00,
2013-05-10 16:33:00,60.5,37.9,30.06,SE,135,0.4,0.4,43,0.00,,---,0.04,VWS V14.01,2013-05-10 22:33:00,
2013-05-10 16:38:00,61.2,38.5,30.06,SE,135,0.0,0.0,43,0.00,,---,0.04,VWS V14.01,2013-05-10 22:38:00,
2013-05-10 16:43:00,61.9,36.7,30.06,East,90,1.1,1.1,39,0.00,,---,0.04,VWS V14.01,2013-05-10 22:43:00,
2013-05-10 16:48:00,62.3,37.7,30.06,ESE,112,0.4,0.4,40,0.00,,---,0.04,VWS V14.01,2013-05-10 22:48:00,
2013-05-10 16:53:00,62.5,37.2,30.06,SE,135,0.4,0.4,39,0.00,,---,0.04,VWS V14.01,2013-05-10 22:53:00,
2013-05-10 16:58:00,62.8,36.8,30.06,South,180,1.1,1.1,38,0.00,,---,0.04,VWS V14.01,2013-05-10 22:58:00,
2013-05-10 17:03:00,63.7,37.0,30.06,SSE,158,3.1,3.1,37,0.00,,---,0.04,VWS V14.01,2013-05-10 23:03:00,
2013-05-10 17:08:00,64.1,36.6,30.06,SSE,158,1.8,1.8,36,0.00,,---,0.04,VWS V14.01,2013-05-10 23:08:00,
2013-05-10 17:13:00,64.3,36.8,30.06,SE,135,0.4,0.4,36,0.00,,---,0.04,VWS V14.01,2013-05-10 23:13:00,
2013-05-10 17:18:00,64.1,37.3,30.06,SSE,158,1.3,1.3,37,0.00,,---,0.04,VWS V14.01,2013-05-10 23:18:00,
2013-05-10 17:23:00,64.8,35.8,30.06,SE,135,0.7,0.7,34,0.00,,---,0.04,VWS V14.01,2013-05-10 23:23:00,
2013-05-10 17:28:00,65.9,36.0,30.06,SE,135,1.6,1.6,33,0.00,,---,0.04,VWS V14.01,2013-05-10 23:28:00,
2013-05-10 17:33:00,65.9,35.2,30.05,SE,135,1.8,1.8,32,0.00,,---,0.04,VWS V14.01,2013-05-10 23:33:00,
2013-05-10 17:38:00,65.9,35.2,30.05,SSE,158,3.4,3.4,32,0.00,,---,0.04,VWS V14.01,2013-05-10 23:38:00,
2013-05-10 17:43:00,66.4,35.7,30.06,SE,135,1.8,1.8,32,0.00,,---,0.04,VWS V14.01,2013-05-10 23:43:00,
2013-05-10 17:48:00,66.4,34.0,30.05,South,180,2.5,2.5,30,0.00,,---,0.04,VWS V14.01,2013-05-10 23:48:00,
2013-05-10 17:53:00,66.6,35.0,30.06,SSE,158,0.4,0.4,31,0.00,,---,0.04,VWS V14.01,2013-05-10 23:53:00,
2013-05-10 17:58:00,67.1,33.8,30.06,NNE,22,1.1,1.1,29,0.00,,---,0.04,VWS V14.01,2013-05-10 23:58:00,
2013-05-10 18:03:00,67.3,34.0,30.06,WNW,292,1.1,2.0,29,0.00,,---,0.04,VWS V14.01,2013-05-11 00:03:00,
2013-05-10 18:08:00,67.0,32.0,30.06,East,90,0.4,0.4,27,0.00,,---,0.04,VWS V14.01,2013-05-11 00:08:00,
2013-05-10 18:13:00,65.7,33.5,30.06,SE,135,3.4,3.4,30,0.00,,---,0.04,VWS V14.01,2013-05-11 00:13:00,
2013-05-10 18:18:00,64.8,32.7,30.06,ESE,112,6.5,6.5,30,0.00,,---,0.04,VWS V14.01,2013-05-11 00:18:00,
2013-05-10 18:23:00,64.4,33.1,30.06,ESE,112,6.9,6.9,31,0.00,,---,0.04,VWS V14.01,2013-05-11 00:23:00,
2013-05-10 18:28:00,64.4,33.1,30.06,SSE,158,6.5,6.5,31,0.00,,---,0.04,VWS V14.01,2013-05-11 00:28:00,
2013-05-10 18:33:00,64.8,33.5,30.06,SSE,158,5.1,5.1,31,0.00,,---,0.04,VWS V14.01,2013-05-11 00:33:00,
2013-05-10 18:38:00,65.0,33.7,30.07,ESE,112,4.7,4.7,31,0.00,,---,0.04,VWS V14.01,2013-05-11 00:38:00,
2013-05-10 18:43:00,64.6,33.3,30.07,ENE,68,2.2,2.2,31,0.00,,---,0.04,VWS V14.01,2013-05-11 00:43:00,
2013-05-10 18:48:00,63.9,33.5,30.07,ESE,112,5.8,5.8,32,0.00,,---,0.04,VWS V14.01,2013-05-11 00:48:00,
2013-05-10 18:53:00,63.4,34.6,30.08,East,90,5.6,5.6,34,0.00,,---,0.04,VWS V14.01,2013-05-11 00:53:00,
2013-05-10 18:58:00,63.0,34.2,30.08,ESE,112,4.5,4.5,34,0.00,,---,0.04,VWS V14.01,2013-05-11 00:58:00,
2013-05-10 19:03:00,63.0,34.2,30.08,SE,135,4.5,4.5,34,0.00,,---,0.04,VWS V14.01,2013-05-11 01:03:00,
2013-05-10 19:08:00,63.0,35.7,30.08,ESE,112,3.8,3.8,36,0.00,,---,0.04,VWS V14.01,2013-05-11 01:08:00,
2013-05-10 19:13:00,63.2,35.8,30.09,ESE,112,3.6,3.6,36,0.00,,---,0.04,VWS V14.01,2013-05-11 01:13:00,
2013-05-10 19:18:00,62.8,36.2,30.09,SE,135,3.4,3.4,37,0.00,,---,0.04,VWS V14.01,2013-05-11 01:18:00,
2013-05-10 19:22:00,62.1,35.5,30.10,ESE,112,4.7,4.7,37,0.00,,---,0.04,VWS V14.01,2013-05-11 01:22:00,
2013-05-10 19:27:00,61.6,35.8,30.10,SE,135,3.4,3.4,38,0.00,,---,0.04,VWS V14.01,2013-05-11 01:27:00,
2013-05-10 19:33:00,61.4,35.6,30.11,ESE,112,4.3,4.3,38,0.00,,---,0.04,VWS V14.01,2013-05-11 01:33:00,
2013-05-10 19:38:00,61.0,35.2,30.11,ESE,112,7.4,7.4,38,0.00,,---,0.04,VWS V14.01,2013-05-11 01:38:00,
2013-05-10 19:43:00,60.7,35.6,30.11,SE,135,2.9,2.9,39,0.00,,---,0.04,VWS V14.01,2013-05-11 01:43:00,
2013-05-10 19:48:00,60.5,36.1,30.12,SSE,158,4.7,4.7,40,0.00,,---,0.04,VWS V14.01,2013-05-11 01:48:00,
2013-05-10 19:52:00,59.9,37.4,30.12,SE,135,6.0,6.0,43,0.00,,---,0.04,VWS V14.01,2013-05-11 01:52:00,
2013-05-10 19:57:00,58.7,38.0,30.12,SSE,158,4.7,4.7,46,0.00,,---,0.04,VWS V14.01,2013-05-11 01:57:00,
2013-05-10 20:02:00,58.0,37.9,30.13,South,180,4.0,4.0,47,0.00,,---,0.04,VWS V14.01,2013-05-11 02:02:00,
2013-05-10 20:07:00,57.4,37.9,30.13,SE,135,4.5,4.5,48,0.00,,---,0.04,VWS V14.01,2013-05-11 02:07:00,
2013-05-10 20:12:00,57.2,38.2,30.14,South,180,2.9,2.9,49,0.00,,---,0.04,VWS V14.01,2013-05-11 02:12:00,
2013-05-10 20:17:00,56.9,38.5,30.14,SE,135,1.1,1.1,50,0.00,,---,0.04,VWS V14.01,2013-05-11 02:17:00,
2013-05-10 20:22:00,56.5,38.1,30.14,SSW,202,1.8,1.8,50,0.00,,---,0.04,VWS V14.01,2013-05-11 02:22:00,
2013-05-10 20:27:00,56.5,38.1,30.14,SSE,158,4.0,4.0,50,0.00,,---,0.04,VWS V14.01,2013-05-11 02:27:00,
2013-05-10 20:32:00,56.3,37.9,30.14,SSE,158,2.9,2.9,50,0.00,,---,0.04,VWS V14.01,2013-05-11 02:32:00,
2013-05-10 20:37:00,56.2,37.8,30.15,SSE,158,1.3,1.3,50,0.00,,---,0.00,VWS V14.01,2013-05-11 02:37:00,
2013-05-10 20:42:00,55.8,37.5,30.15,SSE,158,1.1,1.1,50,0.00,,---,0.04,VWS V14.01,2013-05-11 02:42:00,
2013-05-10 20:47:00,55.6,37.8,30.15,SSE,158,0.9,0.9,51,0.00,,---,0.04,VWS V14.01,2013-05-11 02:47:00,
2013-05-10 20:52:00,55.3,37.5,30.16,SSE,158,6.3,6.3,51,0.00,,---,0.04,VWS V14.01,2013-05-11 02:52:00,
2013-05-10 20:57:00,55.1,37.3,30.16,SSE,158,1.3,1.3,51,0.00,,---,0.04,VWS V14.01,2013-05-11 02:57:00,
2013-05-10 21:02:00,55.1,37.8,30.16,SE,135,4.3,4.3,52,0.00,,---,0.04,VWS V14.01,2013-05-11 03:02:00,
2013-05-10 21:07:00,54.7,37.4,30.16,South,180,3.1,3.1,52,0.00,,---,0.04,VWS V14.01,2013-05-11 03:07:00,
2013-05-10 21:12:00,54.4,38.1,30.17,South,180,3.6,3.6,54,0.00,,---,0.04,VWS V14.01,2013-05-11 03:12:00,
2013-05-10 21:17:00,54.0,39.6,30.17,SE,135,2.0,2.0,58,0.00,,---,0.04,VWS V14.01,2013-05-11 03:17:00,
2013-05-10 21:22:00,53.5,40.4,30.18,SSE,158,2.5,2.5,61,0.00,,---,0.04,VWS V14.01,2013-05-11 03:22:00,
2013-05-10 21:27:00,52.9,40.7,30.17,SSE,158,1.8,1.8,63,0.00,,---,0.04,VWS V14.01,2013-05-11 03:27:00,
2013-05-10 21:32:00,52.7,40.9,30.18,SSE,158,1.3,1.3,64,0.00,,---,0.04,VWS V14.01,2013-05-11 03:32:00,
2013-05-10 21:37:00,52.4,41.0,30.18,SSE,158,2.0,2.0,65,0.00,,---,0.04,VWS V14.01,2013-05-11 03:37:00,
2013-05-10 21:42:00,52.2,40.8,30.18,SSE,158,0.4,0.4,65,0.00,,---,0.04,VWS V14.01,2013-05-11 03:42:00,
2013-05-10 21:47:00,52.0,41.0,30.19,SSE,158,1.1,1.1,66,0.00,,---,0.04,VWS V14.01,2013-05-11 03:47:00,
2013-05-10 21:52:00,51.8,40.4,30.19,SSE,158,0.2,0.2,65,0.00,,---,0.04,VWS V14.01,2013-05-11 03:52:00,
2013-05-10 21:57:00,51.5,40.5,30.19,SE,135,1.6,1.6,66,0.00,,---,0.04,VWS V14.01,2013-05-11 03:57:00,
2013-05-10 22:01:00,51.5,40.5,30.19,SE,135,0.2,0.2,66,0.00,,---,0.04,VWS V14.01,2013-05-11 04:01:00,
2013-05-10 22:06:00,51.3,40.0,30.20,SE,135,0.0,0.0,65,0.00,,---,0.04,VWS V14.01,2013-05-11 04:06:00,
2013-05-10 22:11:00,51.1,39.8,30.20,SE,135,0.2,0.2,65,0.00,,---,0.04,VWS V14.01,2013-05-11 04:11:00,
2013-05-10 22:16:00,50.9,39.6,30.20,ESE,112,0.7,0.7,65,0.00,,---,0.04,VWS V14.01,2013-05-11 04:16:00,
2013-05-10 22:21:00,50.8,39.9,30.20,ESE,112,1.3,1.3,66,0.00,,---,0.04,VWS V14.01,2013-05-11 04:21:00,
2013-05-10 22:26:00,50.8,39.9,30.21,ESE,112,0.4,0.4,66,0.00,,---,0.04,VWS V14.01,2013-05-11 04:26:00,
2013-05-10 22:31:00,50.9,40.0,30.21,East,90,0.4,0.4,66,0.00,,---,0.04,VWS V14.01,2013-05-11 04:31:00,
2013-05-10 22:36:00,50.8,39.9,30.21,SE,135,1.1,1.1,66,0.00,,---,0.04,VWS V14.01,2013-05-11 04:36:00,
2013-05-10 22:41:00,50.9,40.0,30.21,East,90,2.2,2.2,66,0.00,,---,0.04,VWS V14.01,2013-05-11 04:41:00,
2013-05-10 22:46:00,50.8,39.5,30.21,SE,135,0.2,0.2,65,0.00,,---,0.04,VWS V14.01,2013-05-11 04:46:00,
2013-05-10 22:51:00,50.8,39.5,30.21,ESE,112,0.0,0.0,65,0.00,,---,0.04,VWS V14.01,2013-05-11 04:51:00,
2013-05-10 22:56:00,50.6,39.3,30.21,SE,135,0.0,0.0,65,0.00,,---,0.04,VWS V14.01,2013-05-11 04:56:00,
2013-05-10 23:01:00,50.6,39.3,30.21,SE,135,0.2,0.2,65,0.00,,---,0.04,VWS V14.01,2013-05-11 05:01:00,
2013-05-10 23:06:00,50.6,39.3,30.21,ESE,112,0.0,0.0,65,0.00,,---,0.04,VWS V14.01,2013-05-11 05:06:00,
2013-05-10 23:11:00,50.6,39.3,30.21,ESE,112,0.4,0.4,65,0.00,,---,0.04,VWS V14.01,2013-05-11 05:11:00,
2013-05-10 23:16:00,50.6,38.9,30.21,East,90,0.0,0.0,64,0.00,,---,0.04,VWS V14.01,2013-05-11 05:16:00,
2013-05-10 23:21:00,50.6,38.9,30.21,East,90,0.4,0.4,64,0.00,,---,0.04,VWS V14.01,2013-05-11 05:21:00,
2013-05-10 23:26:00,50.4,38.7,30.21,East,90,0.0,0.0,64,0.00,,---,0.04,VWS V14.01,2013-05-11 05:26:00,
2013-05-10 23:31:00,50.4,38.7,30.22,East,90,0.2,0.2,64,0.00,,---,0.04,VWS V14.01,2013-05-11 05:31:00,
2013-05-10 23:36:00,50.8,39.5,30.22,ENE,68,0.4,0.4,65,0.00,,---,0.00,VWS V14.01,2013-05-11 05:36:00,
2013-05-10 23:41:00,50.9,39.6,30.22,NNE,22,0.4,0.4,65,0.00,,---,0.04,VWS V14.01,2013-05-11 05:41:00,
2013-05-10 23:46:00,51.1,39.4,30.22,NE,45,1.1,1.1,64,0.00,,---,0.04,VWS V14.01,2013-05-11 05:46:00,
2013-05-10 23:51:00,51.1,39.4,30.22,ENE,68,1.3,1.3,64,0.00,,---,0.04,VWS V14.01,2013-05-11 05:51:00,
2013-05-10 23:56:00,51.3,39.5,30.22,NE,45,0.2,0.2,64,0.00,,---,0.04,VWS V14.01,2013-05-11 05:56:00,